sensor_id;sensor_type;location;lat;lon;timestamp;P1;durP1;ratioP1;P2;durP2;ratioP2
63012;SDS011;62113;45.624;11.700;2023-03-01T00:00:12;14.65;;;8.38;;
63012;SDS011;62113;45.624;11.700;2023-03-01T00:02:38;18.20;;;8.70;;
63012;SDS011;62113;45.624;11.700;2023-03-01T00:05:04;13.55;;;7.75;;
63012;SDS011;62113;45.624;11.700;2023-03-01T00:07:30;13.70;;;8.40;;
63012;SDS011;62113;45.624;11.700;2023-03-01T00:09:55;15.23;;;8.13;;
63012;SDS011;62113;45.624;11.700;2023-03-01T00:12:21;13.75;;;7.80;;
63012;SDS011;62113;45.624;11.700;2023-03-01T00:14:46;13.20;;;7.53;;
63012;SDS011;62113;45.624;11.700;2023-03-01T00:17:12;13.63;;;8.15;;
63012;SDS011;62113;45.624;11.700;2023-03-01T00:19:38;14.65;;;8.07;;
63012;SDS011;62113;45.624;11.700;2023-03-01T00:22:03;13.30;;;8.07;;
63012;SDS011;62113;45.624;11.700;2023-03-01T00:24:29;12.63;;;7.75;;
63012;SDS011;62113;45.624;11.700;2023-03-01T00:26:55;16.33;;;8.98;;
63012;SDS011;62113;45.624;11.700;2023-03-01T00:29:22;14.35;;;8.50;;
63012;SDS011;62113;45.624;11.700;2023-03-01T00:31:48;15.13;;;8.02;;
63012;SDS011;62113;45.624;11.700;2023-03-01T00:34:14;13.75;;;8.50;;
63012;SDS011;62113;45.624;11.700;2023-03-01T00:36:39;15.70;;;8.88;;
63012;SDS011;62113;45.624;11.700;2023-03-01T00:39:07;12.65;;;8.10;;
63012;SDS011;62113;45.624;11.700;2023-03-01T00:41:35;11.63;;;8.10;;
63012;SDS011;62113;45.624;11.700;2023-03-01T00:44:01;13.25;;;8.57;;
63012;SDS011;62113;45.624;11.700;2023-03-01T00:46:27;13.60;;;7.82;;
63012;SDS011;62113;45.624;11.700;2023-03-01T00:48:55;16.52;;;8.93;;
63012;SDS011;62113;45.624;11.700;2023-03-01T00:51:22;14.45;;;7.72;;
63012;SDS011;62113;45.624;11.700;2023-03-01T00:53:51;13.82;;;8.40;;
63012;SDS011;62113;45.624;11.700;2023-03-01T00:56:18;14.77;;;8.13;;
63012;SDS011;62113;45.624;11.700;2023-03-01T00:58:44;15.07;;;8.88;;
63012;SDS011;62113;45.624;11.700;2023-03-01T01:01:17;13.70;;;8.02;;
63012;SDS011;62113;45.624;11.700;2023-03-01T01:06:37;14.55;;;8.63;;
63012;SDS011;62113;45.624;11.700;2023-03-01T01:09:07;19.42;;;8.82;;
63012;SDS011;62113;45.624;11.700;2023-03-01T01:11:34;14.70;;;8.65;;
63012;SDS011;62113;45.624;11.700;2023-03-01T01:14:01;15.65;;;9.05;;
63012;SDS011;62113;45.624;11.700;2023-03-01T01:16:28;17.05;;;9.15;;
63012;SDS011;62113;45.624;11.700;2023-03-01T01:18:55;22.85;;;9.18;;
63012;SDS011;62113;45.624;11.700;2023-03-01T01:21:22;14.02;;;8.57;;
63012;SDS011;62113;45.624;11.700;2023-03-01T01:23:49;13.85;;;8.52;;
63012;SDS011;62113;45.624;11.700;2023-03-01T01:26:17;13.83;;;8.93;;
63012;SDS011;62113;45.624;11.700;2023-03-01T01:28:45;16.20;;;9.43;;
63012;SDS011;62113;45.624;11.700;2023-03-01T01:31:11;17.48;;;9.75;;
63012;SDS011;62113;45.624;11.700;2023-03-01T01:33:37;14.73;;;8.88;;
63012;SDS011;62113;45.624;11.700;2023-03-01T01:36:04;17.30;;;9.82;;
63012;SDS011;62113;45.624;11.700;2023-03-01T01:38:30;16.25;;;9.02;;
63012;SDS011;62113;45.624;11.700;2023-03-01T01:40:56;18.77;;;8.55;;
63012;SDS011;62113;45.624;11.700;2023-03-01T01:43:26;19.38;;;9.25;;
63012;SDS011;62113;45.624;11.700;2023-03-01T01:45:55;17.10;;;9.05;;
63012;SDS011;62113;45.624;11.700;2023-03-01T01:48:26;13.73;;;8.18;;
63012;SDS011;62113;45.624;11.700;2023-03-01T01:51:05;15.77;;;8.88;;
63012;SDS011;62113;45.624;11.700;2023-03-01T01:53:34;14.70;;;9.13;;
63012;SDS011;62113;45.624;11.700;2023-03-01T01:56:01;17.63;;;9.07;;
63012;SDS011;62113;45.624;11.700;2023-03-01T01:58:28;14.98;;;8.52;;
63012;SDS011;62113;45.624;11.700;2023-03-01T02:00:55;17.02;;;8.23;;
63012;SDS011;62113;45.624;11.700;2023-03-01T02:03:28;14.10;;;8.90;;
63012;SDS011;62113;45.624;11.700;2023-03-01T02:06:06;17.05;;;8.60;;
63012;SDS011;62113;45.624;11.700;2023-03-01T02:08:39;18.77;;;9.30;;
63012;SDS011;62113;45.624;11.700;2023-03-01T02:11:07;18.30;;;8.57;;
63012;SDS011;62113;45.624;11.700;2023-03-01T02:13:33;13.10;;;8.02;;
63012;SDS011;62113;45.624;11.700;2023-03-01T02:16:02;17.13;;;7.90;;
63012;SDS011;62113;45.624;11.700;2023-03-01T02:18:29;17.08;;;9.02;;
63012;SDS011;62113;45.624;11.700;2023-03-01T02:23:27;15.32;;;8.30;;
63012;SDS011;62113;45.624;11.700;2023-03-01T02:25:58;13.90;;;8.05;;
63012;SDS011;62113;45.624;11.700;2023-03-01T02:30:58;14.70;;;8.25;;
63012;SDS011;62113;45.624;11.700;2023-03-01T02:33:42;16.20;;;8.90;;
63012;SDS011;62113;45.624;11.700;2023-03-01T02:36:17;13.07;;;8.30;;
63012;SDS011;62113;45.624;11.700;2023-03-01T02:38:45;11.93;;;8.13;;
63012;SDS011;62113;45.624;11.700;2023-03-01T02:41:13;12.57;;;7.78;;
63012;SDS011;62113;45.624;11.700;2023-03-01T02:43:41;13.52;;;7.70;;
63012;SDS011;62113;45.624;11.700;2023-03-01T02:46:08;15.82;;;8.57;;
63012;SDS011;62113;45.624;11.700;2023-03-01T02:48:42;16.02;;;8.40;;
63012;SDS011;62113;45.624;11.700;2023-03-01T02:53:56;13.18;;;7.95;;
63012;SDS011;62113;45.624;11.700;2023-03-01T02:56:32;14.75;;;7.90;;
63012;SDS011;62113;45.624;11.700;2023-03-01T02:58:58;15.25;;;7.75;;
63012;SDS011;62113;45.624;11.700;2023-03-01T03:01:26;12.20;;;7.18;;
63012;SDS011;62113;45.624;11.700;2023-03-01T03:04:02;12.90;;;7.30;;
63012;SDS011;62113;45.624;11.700;2023-03-01T03:06:28;12.85;;;7.32;;
63012;SDS011;62113;45.624;11.700;2023-03-01T03:08:54;13.32;;;7.85;;
63012;SDS011;62113;45.624;11.700;2023-03-01T03:11:20;13.20;;;7.50;;
63012;SDS011;62113;45.624;11.700;2023-03-01T03:13:46;16.08;;;7.93;;
63012;SDS011;62113;45.624;11.700;2023-03-01T03:16:13;13.73;;;7.93;;
63012;SDS011;62113;45.624;11.700;2023-03-01T03:18:39;15.15;;;7.85;;
63012;SDS011;62113;45.624;11.700;2023-03-01T03:21:07;11.75;;;7.90;;
63012;SDS011;62113;45.624;11.700;2023-03-01T03:23:35;12.15;;;6.78;;
63012;SDS011;62113;45.624;11.700;2023-03-01T03:26:01;10.90;;;6.70;;
63012;SDS011;62113;45.624;11.700;2023-03-01T03:28:29;12.35;;;7.55;;
63012;SDS011;62113;45.624;11.700;2023-03-01T03:30:55;11.90;;;6.95;;
63012;SDS011;62113;45.624;11.700;2023-03-01T03:33:21;11.95;;;6.82;;
63012;SDS011;62113;45.624;11.700;2023-03-01T03:35:47;11.23;;;6.50;;
63012;SDS011;62113;45.624;11.700;2023-03-01T03:38:15;11.30;;;6.70;;
63012;SDS011;62113;45.624;11.700;2023-03-01T03:41:01;11.15;;;7.40;;
63012;SDS011;62113;45.624;11.700;2023-03-01T03:43:30;15.02;;;6.72;;
63012;SDS011;62113;45.624;11.700;2023-03-01T03:45:57;14.20;;;7.28;;
63012;SDS011;62113;45.624;11.700;2023-03-01T03:48:23;10.98;;;7.13;;
63012;SDS011;62113;45.624;11.700;2023-03-01T03:53:17;11.10;;;7.22;;
63012;SDS011;62113;45.624;11.700;2023-03-01T03:55:43;10.05;;;6.57;;
63012;SDS011;62113;45.624;11.700;2023-03-01T03:58:09;11.93;;;7.60;;
63012;SDS011;62113;45.624;11.700;2023-03-01T04:00:39;12.90;;;6.95;;
63012;SDS011;62113;45.624;11.700;2023-03-01T04:03:07;12.70;;;7.53;;
63012;SDS011;62113;45.624;11.700;2023-03-01T04:05:33;13.25;;;7.85;;
63012;SDS011;62113;45.624;11.700;2023-03-01T04:07:59;12.75;;;7.70;;
63012;SDS011;62113;45.624;11.700;2023-03-01T04:10:28;12.90;;;7.57;;
63012;SDS011;62113;45.624;11.700;2023-03-01T04:12:56;11.35;;;7.38;;
63012;SDS011;62113;45.624;11.700;2023-03-01T04:15:22;10.20;;;7.00;;
63012;SDS011;62113;45.624;11.700;2023-03-01T04:17:49;14.05;;;7.50;;
63012;SDS011;62113;45.624;11.700;2023-03-01T04:20:17;12.43;;;7.03;;
63012;SDS011;62113;45.624;11.700;2023-03-01T04:22:49;11.70;;;7.43;;
63012;SDS011;62113;45.624;11.700;2023-03-01T04:25:17;10.23;;;6.57;;
63012;SDS011;62113;45.624;11.700;2023-03-01T04:27:42;10.05;;;7.18;;
63012;SDS011;62113;45.624;11.700;2023-03-01T04:30:08;12.30;;;6.80;;
63012;SDS011;62113;45.624;11.700;2023-03-01T04:32:35;12.43;;;7.78;;
63012;SDS011;62113;45.624;11.700;2023-03-01T04:35:01;13.15;;;7.78;;
63012;SDS011;62113;45.624;11.700;2023-03-01T04:37:26;14.10;;;6.70;;
63012;SDS011;62113;45.624;11.700;2023-03-01T04:39:52;12.20;;;7.50;;
63012;SDS011;62113;45.624;11.700;2023-03-01T04:42:18;10.50;;;7.05;;
63012;SDS011;62113;45.624;11.700;2023-03-01T04:44:44;12.10;;;6.90;;
63012;SDS011;62113;45.624;11.700;2023-03-01T04:47:11;12.60;;;8.00;;
63012;SDS011;62113;45.624;11.700;2023-03-01T04:49:37;18.00;;;7.20;;
63012;SDS011;62113;45.624;11.700;2023-03-01T04:52:02;13.88;;;8.05;;
63012;SDS011;62113;45.624;11.700;2023-03-01T04:54:32;14.50;;;8.33;;
63012;SDS011;62113;45.624;11.700;2023-03-01T04:56:59;15.32;;;8.32;;
63012;SDS011;62113;45.624;11.700;2023-03-01T04:59:25;16.90;;;8.73;;
63012;SDS011;62113;45.624;11.700;2023-03-01T05:01:51;14.65;;;8.50;;
63012;SDS011;62113;45.624;11.700;2023-03-01T05:04:21;11.38;;;7.97;;
63012;SDS011;62113;45.624;11.700;2023-03-01T05:06:50;12.98;;;7.82;;
63012;SDS011;62113;45.624;11.700;2023-03-01T05:09:15;18.17;;;7.30;;
63012;SDS011;62113;45.624;11.700;2023-03-01T05:11:41;13.70;;;7.13;;
63012;SDS011;62113;45.624;11.700;2023-03-01T05:14:08;9.07;;;6.57;;
63012;SDS011;62113;45.624;11.700;2023-03-01T05:16:34;12.35;;;7.40;;
63012;SDS011;62113;45.624;11.700;2023-03-01T05:19:01;12.60;;;7.72;;
63012;SDS011;62113;45.624;11.700;2023-03-01T05:21:36;15.35;;;8.35;;
63012;SDS011;62113;45.624;11.700;2023-03-01T05:26:48;10.87;;;6.50;;
63012;SDS011;62113;45.624;11.700;2023-03-01T05:29:16;12.95;;;7.78;;
63012;SDS011;62113;45.624;11.700;2023-03-01T05:31:43;20.05;;;7.95;;
63012;SDS011;62113;45.624;11.700;2023-03-01T05:34:08;12.55;;;7.72;;
63012;SDS011;62113;45.624;11.700;2023-03-01T05:36:34;16.02;;;9.38;;
63012;SDS011;62113;45.624;11.700;2023-03-01T05:39:00;16.40;;;10.25;;
63012;SDS011;62113;45.624;11.700;2023-03-01T05:41:25;15.98;;;8.68;;
63012;SDS011;62113;45.624;11.700;2023-03-01T05:43:51;12.73;;;8.23;;
63012;SDS011;62113;45.624;11.700;2023-03-01T05:46:16;17.63;;;8.85;;
63012;SDS011;62113;45.624;11.700;2023-03-01T05:48:42;19.02;;;9.13;;
63012;SDS011;62113;45.624;11.700;2023-03-01T05:51:08;15.27;;;9.20;;
63012;SDS011;62113;45.624;11.700;2023-03-01T05:53:34;12.65;;;7.75;;
63012;SDS011;62113;45.624;11.700;2023-03-01T05:55:59;17.17;;;9.32;;
63012;SDS011;62113;45.624;11.700;2023-03-01T05:58:28;16.05;;;10.15;;
63012;SDS011;62113;45.624;11.700;2023-03-01T06:00:54;20.48;;;11.07;;
63012;SDS011;62113;45.624;11.700;2023-03-01T06:03:19;15.63;;;10.02;;
63012;SDS011;62113;45.624;11.700;2023-03-01T06:05:45;17.42;;;8.93;;
63012;SDS011;62113;45.624;11.700;2023-03-01T06:08:11;26.27;;;10.95;;
63012;SDS011;62113;45.624;11.700;2023-03-01T06:10:37;25.02;;;12.48;;
63012;SDS011;62113;45.624;11.700;2023-03-01T06:13:03;25.58;;;12.65;;
63012;SDS011;62113;45.624;11.700;2023-03-01T06:15:29;27.45;;;14.43;;
63012;SDS011;62113;45.624;11.700;2023-03-01T06:17:55;30.08;;;14.32;;
63012;SDS011;62113;45.624;11.700;2023-03-01T06:20:23;27.20;;;12.73;;
63012;SDS011;62113;45.624;11.700;2023-03-01T06:22:50;25.50;;;11.93;;
63012;SDS011;62113;45.624;11.700;2023-03-01T06:25:17;26.33;;;10.77;;
63012;SDS011;62113;45.624;11.700;2023-03-01T06:27:45;16.48;;;10.18;;
63012;SDS011;62113;45.624;11.700;2023-03-01T06:30:11;14.60;;;9.70;;
63012;SDS011;62113;45.624;11.700;2023-03-01T06:32:39;20.20;;;9.35;;
63012;SDS011;62113;45.624;11.700;2023-03-01T06:35:11;15.18;;;9.30;;
63012;SDS011;62113;45.624;11.700;2023-03-01T06:37:39;15.25;;;8.82;;
63012;SDS011;62113;45.624;11.700;2023-03-01T06:40:06;24.58;;;8.90;;
63012;SDS011;62113;45.624;11.700;2023-03-01T06:42:36;16.35;;;7.85;;
63012;SDS011;62113;45.624;11.700;2023-03-01T06:45:02;11.77;;;7.10;;
63012;SDS011;62113;45.624;11.700;2023-03-01T06:47:29;12.93;;;8.25;;
63012;SDS011;62113;45.624;11.700;2023-03-01T06:49:54;13.48;;;8.77;;
63012;SDS011;62113;45.624;11.700;2023-03-01T06:52:20;16.02;;;9.82;;
63012;SDS011;62113;45.624;11.700;2023-03-01T06:54:45;24.08;;;11.32;;
63012;SDS011;62113;45.624;11.700;2023-03-01T06:57:11;25.77;;;9.80;;
63012;SDS011;62113;45.624;11.700;2023-03-01T06:59:37;16.27;;;8.20;;
63012;SDS011;62113;45.624;11.700;2023-03-01T07:02:02;18.05;;;8.80;;
63012;SDS011;62113;45.624;11.700;2023-03-01T07:04:28;13.95;;;8.05;;
63012;SDS011;62113;45.624;11.700;2023-03-01T07:06:55;18.88;;;8.60;;
63012;SDS011;62113;45.624;11.700;2023-03-01T07:09:22;22.58;;;9.90;;
63012;SDS011;62113;45.624;11.700;2023-03-01T07:11:48;16.65;;;9.82;;
63012;SDS011;62113;45.624;11.700;2023-03-01T07:14:14;17.92;;;9.55;;
63012;SDS011;62113;45.624;11.700;2023-03-01T07:16:39;15.18;;;8.77;;
63012;SDS011;62113;45.624;11.700;2023-03-01T07:19:05;13.63;;;8.75;;
63012;SDS011;62113;45.624;11.700;2023-03-01T07:21:31;14.27;;;7.88;;
63012;SDS011;62113;45.624;11.700;2023-03-01T07:23:57;10.80;;;7.78;;
63012;SDS011;62113;45.624;11.700;2023-03-01T07:26:22;13.50;;;7.95;;
63012;SDS011;62113;45.624;11.700;2023-03-01T07:28:48;20.65;;;8.25;;
63012;SDS011;62113;45.624;11.700;2023-03-01T07:31:14;28.17;;;9.65;;
63012;SDS011;62113;45.624;11.700;2023-03-01T07:33:39;14.82;;;8.32;;
63012;SDS011;62113;45.624;11.700;2023-03-01T07:36:05;21.08;;;9.90;;
63012;SDS011;62113;45.624;11.700;2023-03-01T07:38:31;19.15;;;10.93;;
63012;SDS011;62113;45.624;11.700;2023-03-01T07:40:58;17.30;;;9.85;;
63012;SDS011;62113;45.624;11.700;2023-03-01T07:45:50;17.87;;;10.43;;
63012;SDS011;62113;45.624;11.700;2023-03-01T07:48:16;16.20;;;9.13;;
63012;SDS011;62113;45.624;11.700;2023-03-01T07:50:41;15.95;;;9.13;;
63012;SDS011;62113;45.624;11.700;2023-03-01T07:53:08;15.85;;;9.90;;
63012;SDS011;62113;45.624;11.700;2023-03-01T07:55:34;23.35;;;11.63;;
63012;SDS011;62113;45.624;11.700;2023-03-01T07:58:00;32.13;;;10.88;;
63012;SDS011;62113;45.624;11.700;2023-03-01T08:00:26;18.23;;;10.35;;
63012;SDS011;62113;45.624;11.700;2023-03-01T08:02:51;24.83;;;9.68;;
63012;SDS011;62113;45.624;11.700;2023-03-01T08:05:17;28.15;;;10.77;;
63012;SDS011;62113;45.624;11.700;2023-03-01T08:07:42;18.33;;;10.02;;
63012;SDS011;62113;45.624;11.700;2023-03-01T08:10:08;17.48;;;10.63;;
63012;SDS011;62113;45.624;11.700;2023-03-01T08:12:34;15.13;;;9.07;;
63012;SDS011;62113;45.624;11.700;2023-03-01T08:15:00;13.68;;;8.52;;
63012;SDS011;62113;45.624;11.700;2023-03-01T08:17:26;16.13;;;10.07;;
63012;SDS011;62113;45.624;11.700;2023-03-01T08:19:51;17.25;;;8.60;;
63012;SDS011;62113;45.624;11.700;2023-03-01T08:22:17;19.02;;;8.95;;
63012;SDS011;62113;45.624;11.700;2023-03-01T08:24:42;16.30;;;9.65;;
63012;SDS011;62113;45.624;11.700;2023-03-01T08:27:08;17.80;;;9.05;;
63012;SDS011;62113;45.624;11.700;2023-03-01T08:29:34;16.65;;;8.88;;
63012;SDS011;62113;45.624;11.700;2023-03-01T08:32:00;14.52;;;8.70;;
63012;SDS011;62113;45.624;11.700;2023-03-01T08:34:25;15.80;;;8.48;;
63012;SDS011;62113;45.624;11.700;2023-03-01T08:36:51;15.43;;;9.35;;
63012;SDS011;62113;45.624;11.700;2023-03-01T08:39:17;17.55;;;9.35;;
63012;SDS011;62113;45.624;11.700;2023-03-01T08:41:45;105.65;;;54.40;;
63012;SDS011;62113;45.624;11.700;2023-03-01T08:44:11;69.30;;;35.22;;
63012;SDS011;62113;45.624;11.700;2023-03-01T08:46:39;16.85;;;8.98;;
63012;SDS011;62113;45.624;11.700;2023-03-01T08:49:13;13.55;;;8.45;;
63012;SDS011;62113;45.624;11.700;2023-03-01T08:51:40;15.10;;;8.95;;
63012;SDS011;62113;45.624;11.700;2023-03-01T08:54:10;16.35;;;8.35;;
63012;SDS011;62113;45.624;11.700;2023-03-01T08:56:37;19.25;;;7.63;;
63012;SDS011;62113;45.624;11.700;2023-03-01T08:59:02;22.20;;;8.82;;
63012;SDS011;62113;45.624;11.700;2023-03-01T09:01:29;18.45;;;9.10;;
63012;SDS011;62113;45.624;11.700;2023-03-01T09:03:54;12.02;;;7.47;;
63012;SDS011;62113;45.624;11.700;2023-03-01T09:06:20;13.00;;;6.53;;
63012;SDS011;62113;45.624;11.700;2023-03-01T09:08:47;16.50;;;7.63;;
63012;SDS011;62113;45.624;11.700;2023-03-01T09:11:14;12.45;;;6.57;;
63012;SDS011;62113;45.624;11.700;2023-03-01T09:13:43;10.30;;;6.57;;
63012;SDS011;62113;45.624;11.700;2023-03-01T09:16:10;9.55;;;5.20;;
63012;SDS011;62113;45.624;11.700;2023-03-01T09:18:37;10.65;;;6.10;;
63012;SDS011;62113;45.624;11.700;2023-03-01T09:21:03;6.93;;;4.50;;
63012;SDS011;62113;45.624;11.700;2023-03-01T09:23:37;5.95;;;4.05;;
63012;SDS011;62113;45.624;11.700;2023-03-01T09:26:05;6.47;;;4.50;;
63012;SDS011;62113;45.624;11.700;2023-03-01T09:28:33;7.03;;;4.45;;
63012;SDS011;62113;45.624;11.700;2023-03-01T09:30:59;5.60;;;4.88;;
63012;SDS011;62113;45.624;11.700;2023-03-01T09:33:25;8.38;;;4.55;;
63012;SDS011;62113;45.624;11.700;2023-03-01T09:35:58;5.47;;;4.18;;
63012;SDS011;62113;45.624;11.700;2023-03-01T09:38:25;6.38;;;4.03;;
63012;SDS011;62113;45.624;11.700;2023-03-01T09:40:51;6.00;;;3.92;;
63012;SDS011;62113;45.624;11.700;2023-03-01T09:45:55;6.28;;;3.92;;
63012;SDS011;62113;45.624;11.700;2023-03-01T09:48:28;4.30;;;3.40;;
63012;SDS011;62113;45.624;11.700;2023-03-01T09:51:01;5.55;;;3.28;;
63012;SDS011;62113;45.624;11.700;2023-03-01T09:53:32;5.30;;;3.95;;
63012;SDS011;62113;45.624;11.700;2023-03-01T09:56:02;4.95;;;3.97;;
63012;SDS011;62113;45.624;11.700;2023-03-01T10:07:05;5.63;;;3.83;;
63012;SDS011;62113;45.624;11.700;2023-03-01T10:09:36;8.77;;;4.05;;
63012;SDS011;62113;45.624;11.700;2023-03-01T10:12:25;4.20;;;2.83;;
63012;SDS011;62113;45.624;11.700;2023-03-01T10:15:09;2.83;;;2.58;;
63012;SDS011;62113;45.624;11.700;2023-03-01T10:17:52;5.93;;;4.00;;
63012;SDS011;62113;45.624;11.700;2023-03-01T10:20:46;9.82;;;4.35;;
63012;SDS011;62113;45.624;11.700;2023-03-01T10:23:27;6.38;;;3.78;;
63012;SDS011;62113;45.624;11.700;2023-03-01T10:29:02;4.65;;;3.17;;
63012;SDS011;62113;45.624;11.700;2023-03-01T10:31:44;4.80;;;3.30;;
63012;SDS011;62113;45.624;11.700;2023-03-01T10:34:21;5.28;;;3.42;;
63012;SDS011;62113;45.624;11.700;2023-03-01T10:36:52;8.18;;;3.30;;
63012;SDS011;62113;45.624;11.700;2023-03-01T10:39:22;5.55;;;3.13;;
63012;SDS011;62113;45.624;11.700;2023-03-01T10:41:54;5.43;;;3.42;;
63012;SDS011;62113;45.624;11.700;2023-03-01T10:47:12;14.57;;;3.20;;
63012;SDS011;62113;45.624;11.700;2023-03-01T10:49:58;4.95;;;3.10;;
63012;SDS011;62113;45.624;11.700;2023-03-01T10:52:35;3.22;;;2.63;;
63012;SDS011;62113;45.624;11.700;2023-03-01T10:57:50;6.75;;;3.50;;
63012;SDS011;62113;45.624;11.700;2023-03-01T11:03:13;2.30;;;1.67;;
63012;SDS011;62113;45.624;11.700;2023-03-01T11:05:55;6.10;;;3.63;;
63012;SDS011;62113;45.624;11.700;2023-03-01T11:09:01;6.25;;;3.58;;
63012;SDS011;62113;45.624;11.700;2023-03-01T11:11:22;4.20;;;3.50;;
63012;SDS011;62113;45.624;11.700;2023-03-01T11:14:07;16.08;;;4.03;;
63012;SDS011;62113;45.624;11.700;2023-03-01T11:16:41;6.30;;;3.63;;
63012;SDS011;62113;45.624;11.700;2023-03-01T11:21:35;11.57;;;3.83;;
63012;SDS011;62113;45.624;11.700;2023-03-01T11:24:05;10.27;;;3.53;;
63012;SDS011;62113;45.624;11.700;2023-03-01T11:26:38;7.40;;;2.88;;
63012;SDS011;62113;45.624;11.700;2023-03-01T11:29:09;7.00;;;4.18;;
63012;SDS011;62113;45.624;11.700;2023-03-01T11:31:46;17.67;;;5.05;;
63012;SDS011;62113;45.624;11.700;2023-03-01T11:45:13;9.73;;;3.10;;
63012;SDS011;62113;45.624;11.700;2023-03-01T11:47:45;12.98;;;3.25;;
63012;SDS011;62113;45.624;11.700;2023-03-01T11:50:35;6.22;;;2.35;;
63012;SDS011;62113;45.624;11.700;2023-03-01T12:04:17;11.32;;;5.30;;
63012;SDS011;62113;45.624;11.700;2023-03-01T12:23:15;14.90;;;2.97;;
63012;SDS011;62113;45.624;11.700;2023-03-01T12:25:48;11.40;;;3.40;;
63012;SDS011;62113;45.624;11.700;2023-03-01T12:44:38;34.22;;;5.70;;
63012;SDS011;62113;45.624;11.700;2023-03-01T12:49:53;8.98;;;3.70;;
63012;SDS011;62113;45.624;11.700;2023-03-01T12:54:54;11.05;;;3.88;;
63012;SDS011;62113;45.624;11.700;2023-03-01T12:57:26;13.02;;;3.65;;
63012;SDS011;62113;45.624;11.700;2023-03-01T13:11:11;20.95;;;4.90;;
63012;SDS011;62113;45.624;11.700;2023-03-01T13:13:30;14.23;;;3.85;;
63012;SDS011;62113;45.624;11.700;2023-03-01T13:15:56;6.82;;;2.65;;
63012;SDS011;62113;45.624;11.700;2023-03-01T13:26:09;5.20;;;2.70;;
63012;SDS011;62113;45.624;11.700;2023-03-01T13:50:15;8.63;;;4.30;;
63012;SDS011;62113;45.624;11.700;2023-03-01T13:57:49;7.85;;;4.13;;
63012;SDS011;62113;45.624;11.700;2023-03-01T14:05:26;2.10;;;1.90;;
63012;SDS011;62113;45.624;11.700;2023-03-01T14:07:51;8.48;;;3.78;;
63012;SDS011;62113;45.624;11.700;2023-03-01T14:10:17;7.82;;;3.80;;
63012;SDS011;62113;45.624;11.700;2023-03-01T14:18:39;7.22;;;3.88;;
63012;SDS011;62113;45.624;11.700;2023-03-01T14:21:18;11.95;;;4.65;;
63012;SDS011;62113;45.624;11.700;2023-03-01T14:23:44;6.85;;;3.65;;
63012;SDS011;62113;45.624;11.700;2023-03-01T14:26:11;14.98;;;4.00;;
63012;SDS011;62113;45.624;11.700;2023-03-01T14:28:37;9.07;;;4.88;;
63012;SDS011;62113;45.624;11.700;2023-03-01T14:31:24;7.05;;;4.28;;
63012;SDS011;62113;45.624;11.700;2023-03-01T14:34:04;11.20;;;5.07;;
63012;SDS011;62113;45.624;11.700;2023-03-01T14:36:32;16.58;;;4.78;;
63012;SDS011;62113;45.624;11.700;2023-03-01T14:38:59;10.10;;;4.43;;
63012;SDS011;62113;45.624;11.700;2023-03-01T14:41:30;7.15;;;4.13;;
63012;SDS011;62113;45.624;11.700;2023-03-01T14:44:12;7.47;;;3.63;;
63012;SDS011;62113;45.624;11.700;2023-03-01T14:46:44;10.18;;;4.40;;
63012;SDS011;62113;45.624;11.700;2023-03-01T14:49:11;11.57;;;4.70;;
63012;SDS011;62113;45.624;11.700;2023-03-01T14:51:41;10.75;;;5.03;;
63012;SDS011;62113;45.624;11.700;2023-03-01T14:54:37;13.35;;;5.50;;
63012;SDS011;62113;45.624;11.700;2023-03-01T14:57:00;12.23;;;5.30;;
63012;SDS011;62113;45.624;11.700;2023-03-01T14:59:26;13.82;;;6.03;;
63012;SDS011;62113;45.624;11.700;2023-03-01T15:01:53;10.80;;;5.50;;
63012;SDS011;62113;45.624;11.700;2023-03-01T15:04:21;10.50;;;5.05;;
63012;SDS011;62113;45.624;11.700;2023-03-01T15:09:16;12.65;;;5.68;;
63012;SDS011;62113;45.624;11.700;2023-03-01T15:11:42;16.00;;;6.15;;
63012;SDS011;62113;45.624;11.700;2023-03-01T15:17:35;33.20;;;13.82;;
63012;SDS011;62113;45.624;11.700;2023-03-01T15:20:01;26.13;;;14.48;;
63012;SDS011;62113;45.624;11.700;2023-03-01T15:22:29;25.92;;;11.50;;
63012;SDS011;62113;45.624;11.700;2023-03-01T15:24:55;11.00;;;5.82;;
63012;SDS011;62113;45.624;11.700;2023-03-01T15:27:21;15.40;;;5.80;;
63012;SDS011;62113;45.624;11.700;2023-03-01T15:29:57;15.27;;;5.80;;
63012;SDS011;62113;45.624;11.700;2023-03-01T15:32:34;12.05;;;5.60;;
63012;SDS011;62113;45.624;11.700;2023-03-01T15:38:00;20.73;;;7.43;;
63012;SDS011;62113;45.624;11.700;2023-03-01T15:40:27;16.70;;;7.75;;
63012;SDS011;62113;45.624;11.700;2023-03-01T15:43:00;19.90;;;7.13;;
63012;SDS011;62113;45.624;11.700;2023-03-01T15:45:29;11.88;;;5.85;;
63012;SDS011;62113;45.624;11.700;2023-03-01T15:48:05;19.48;;;8.40;;
63012;SDS011;62113;45.624;11.700;2023-03-01T15:50:42;74.47;;;27.63;;
63012;SDS011;62113;45.624;11.700;2023-03-01T15:53:12;77.35;;;28.48;;
63012;SDS011;62113;45.624;11.700;2023-03-01T15:55:39;72.57;;;29.45;;
63012;SDS011;62113;45.624;11.700;2023-03-01T15:58:08;55.20;;;22.80;;
63012;SDS011;62113;45.624;11.700;2023-03-01T16:00:38;42.83;;;16.52;;
63012;SDS011;62113;45.624;11.700;2023-03-01T16:03:04;47.78;;;18.55;;
63012;SDS011;62113;45.624;11.700;2023-03-01T16:05:31;26.75;;;11.02;;
63012;SDS011;62113;45.624;11.700;2023-03-01T16:07:59;17.63;;;7.43;;
63012;SDS011;62113;45.624;11.700;2023-03-01T16:10:25;12.27;;;5.73;;
63012;SDS011;62113;45.624;11.700;2023-03-01T16:12:51;12.07;;;5.77;;
63012;SDS011;62113;45.624;11.700;2023-03-01T16:17:43;6.88;;;4.30;;
63012;SDS011;62113;45.624;11.700;2023-03-01T16:20:09;8.27;;;5.03;;
63012;SDS011;62113;45.624;11.700;2023-03-01T16:22:35;13.60;;;4.60;;
63012;SDS011;62113;45.624;11.700;2023-03-01T16:25:00;4.88;;;2.78;;
63012;SDS011;62113;45.624;11.700;2023-03-01T16:27:27;7.90;;;2.78;;
63012;SDS011;62113;45.624;11.700;2023-03-01T16:29:53;5.93;;;3.97;;
63012;SDS011;62113;45.624;11.700;2023-03-01T16:32:18;4.55;;;3.25;;
63012;SDS011;62113;45.624;11.700;2023-03-01T16:34:44;7.97;;;4.00;;
63012;SDS011;62113;45.624;11.700;2023-03-01T16:37:12;6.22;;;3.22;;
63012;SDS011;62113;45.624;11.700;2023-03-01T16:39:38;3.60;;;2.45;;
63012;SDS011;62113;45.624;11.700;2023-03-01T16:42:04;1.75;;;1.65;;
63012;SDS011;62113;45.624;11.700;2023-03-01T16:44:29;6.38;;;3.50;;
63012;SDS011;62113;45.624;11.700;2023-03-01T16:46:55;7.03;;;4.88;;
63012;SDS011;62113;45.624;11.700;2023-03-01T16:49:21;16.15;;;8.82;;
63012;SDS011;62113;45.624;11.700;2023-03-01T16:51:46;22.48;;;9.20;;
63012;SDS011;62113;45.624;11.700;2023-03-01T16:54:12;10.05;;;6.03;;
63012;SDS011;62113;45.624;11.700;2023-03-01T16:56:37;6.25;;;4.40;;
63012;SDS011;62113;45.624;11.700;2023-03-01T16:59:04;4.95;;;4.20;;
63012;SDS011;62113;45.624;11.700;2023-03-01T17:01:30;9.33;;;4.17;;
63012;SDS011;62113;45.624;11.700;2023-03-01T17:04:03;9.20;;;5.32;;
63012;SDS011;62113;45.624;11.700;2023-03-01T17:06:29;7.15;;;5.45;;
63012;SDS011;62113;45.624;11.700;2023-03-01T17:08:56;12.13;;;5.65;;
63012;SDS011;62113;45.624;11.700;2023-03-01T17:11:22;9.93;;;6.00;;
63012;SDS011;62113;45.624;11.700;2023-03-01T17:13:47;8.77;;;5.32;;
63012;SDS011;62113;45.624;11.700;2023-03-01T17:16:14;9.30;;;5.50;;
63012;SDS011;62113;45.624;11.700;2023-03-01T17:18:41;9.43;;;5.20;;
63012;SDS011;62113;45.624;11.700;2023-03-01T17:21:07;11.43;;;5.55;;